sensor_id;sensor_type;location;lat;lon;timestamp;P1;durP1;ratioP1;P2;durP2;ratioP2
12356;SDS011;6243;51.244;6.774;2023-05-14T00:00:53;12.23;;;11.10;;
12356;SDS011;6243;51.244;6.774;2023-05-14T00:03:20;12.17;;;10.93;;
12356;SDS011;6243;51.244;6.774;2023-05-14T00:05:46;13.23;;;11.93;;
12356;SDS011;6243;51.244;6.774;2023-05-14T00:08:12;12.10;;;11.00;;
12356;SDS011;6243;51.244;6.774;2023-05-14T00:10:37;12.30;;;11.10;;
12356;SDS011;6243;51.244;6.774;2023-05-14T00:13:03;11.23;;;10.17;;
12356;SDS011;6243;51.244;6.774;2023-05-14T00:15:28;11.90;;;10.80;;
12356;SDS011;6243;51.244;6.774;2023-05-14T00:17:54;11.70;;;10.60;;
12356;SDS011;6243;51.244;6.774;2023-05-14T00:20:21;12.77;;;11.43;;
12356;SDS011;6243;51.244;6.774;2023-05-14T00:22:46;13.23;;;12.03;;
12356;SDS011;6243;51.244;6.774;2023-05-14T00:25:12;11.00;;;9.90;;
12356;SDS011;6243;51.244;6.774;2023-05-14T00:27:37;11.90;;;10.70;;
12356;SDS011;6243;51.244;6.774;2023-05-14T00:30:03;12.27;;;11.00;;
12356;SDS011;6243;51.244;6.774;2023-05-14T00:32:30;12.83;;;11.50;;
12356;SDS011;6243;51.244;6.774;2023-05-14T00:34:56;11.00;;;10.00;;
12356;SDS011;6243;51.244;6.774;2023-05-14T00:37:23;10.73;;;9.83;;
12356;SDS011;6243;51.244;6.774;2023-05-14T00:39:49;10.97;;;9.97;;
12356;SDS011;6243;51.244;6.774;2023-05-14T00:42:14;11.03;;;9.87;;
12356;SDS011;6243;51.244;6.774;2023-05-14T00:44:40;12.17;;;10.23;;
12356;SDS011;6243;51.244;6.774;2023-05-14T00:47:06;12.50;;;10.47;;
12356;SDS011;6243;51.244;6.774;2023-05-14T00:49:32;11.73;;;10.63;;
12356;SDS011;6243;51.244;6.774;2023-05-14T00:51:58;11.47;;;10.27;;
12356;SDS011;6243;51.244;6.774;2023-05-14T00:54:25;11.57;;;10.43;;
12356;SDS011;6243;51.244;6.774;2023-05-14T00:56:52;11.67;;;10.60;;
12356;SDS011;6243;51.244;6.774;2023-05-14T00:59:18;11.00;;;9.87;;
12356;SDS011;6243;51.244;6.774;2023-05-14T01:01:44;10.63;;;9.63;;
12356;SDS011;6243;51.244;6.774;2023-05-14T01:04:09;11.83;;;10.67;;
12356;SDS011;6243;51.244;6.774;2023-05-14T01:06:38;11.33;;;10.33;;
12356;SDS011;6243;51.244;6.774;2023-05-14T01:09:12;11.07;;;10.07;;
12356;SDS011;6243;51.244;6.774;2023-05-14T01:11:47;12.07;;;10.87;;
12356;SDS011;6243;51.244;6.774;2023-05-14T01:14:22;12.00;;;10.80;;
12356;SDS011;6243;51.244;6.774;2023-05-14T01:16:54;11.53;;;10.00;;
12356;SDS011;6243;51.244;6.774;2023-05-14T01:19:25;11.07;;;9.97;;
12356;SDS011;6243;51.244;6.774;2023-05-14T01:21:59;10.87;;;9.77;;
12356;SDS011;6243;51.244;6.774;2023-05-14T01:24:24;11.90;;;10.80;;
12356;SDS011;6243;51.244;6.774;2023-05-14T01:26:49;10.27;;;9.30;;
12356;SDS011;6243;51.244;6.774;2023-05-14T01:29:17;11.57;;;10.37;;
12356;SDS011;6243;51.244;6.774;2023-05-14T01:31:46;11.77;;;10.57;;
12356;SDS011;6243;51.244;6.774;2023-05-14T01:34:13;13.30;;;11.90;;
12356;SDS011;6243;51.244;6.774;2023-05-14T01:36:39;11.40;;;10.23;;
12356;SDS011;6243;51.244;6.774;2023-05-14T01:39:07;11.50;;;10.40;;
12356;SDS011;6243;51.244;6.774;2023-05-14T01:41:34;11.10;;;9.90;;
12356;SDS011;6243;51.244;6.774;2023-05-14T01:44:01;11.57;;;10.57;;
12356;SDS011;6243;51.244;6.774;2023-05-14T01:46:29;11.73;;;10.07;;
12356;SDS011;6243;51.244;6.774;2023-05-14T01:48:55;12.60;;;10.17;;
12356;SDS011;6243;51.244;6.774;2023-05-14T01:51:21;10.33;;;9.33;;
12356;SDS011;6243;51.244;6.774;2023-05-14T01:53:46;10.47;;;9.47;;
12356;SDS011;6243;51.244;6.774;2023-05-14T01:56:13;11.70;;;10.60;;
12356;SDS011;6243;51.244;6.774;2023-05-14T01:58:39;11.40;;;10.20;;
12356;SDS011;6243;51.244;6.774;2023-05-14T02:01:04;11.83;;;10.63;;
12356;SDS011;6243;51.244;6.774;2023-05-14T02:03:30;11.97;;;10.67;;
12356;SDS011;6243;51.244;6.774;2023-05-14T02:05:55;12.67;;;11.47;;
12356;SDS011;6243;51.244;6.774;2023-05-14T02:08:21;12.67;;;11.43;;
12356;SDS011;6243;51.244;6.774;2023-05-14T02:10:46;12.30;;;11.03;;
12356;SDS011;6243;51.244;6.774;2023-05-14T02:13:13;11.90;;;10.73;;
12356;SDS011;6243;51.244;6.774;2023-05-14T02:15:39;12.13;;;10.70;;
12356;SDS011;6243;51.244;6.774;2023-05-14T02:18:04;14.80;;;12.43;;
12356;SDS011;6243;51.244;6.774;2023-05-14T02:20:30;12.60;;;11.30;;
12356;SDS011;6243;51.244;6.774;2023-05-14T02:22:55;13.70;;;12.30;;
12356;SDS011;6243;51.244;6.774;2023-05-14T02:25:21;12.80;;;11.60;;
12356;SDS011;6243;51.244;6.774;2023-05-14T02:27:46;13.67;;;11.73;;
12356;SDS011;6243;51.244;6.774;2023-05-14T02:30:13;11.63;;;10.53;;
12356;SDS011;6243;51.244;6.774;2023-05-14T02:32:40;12.20;;;11.00;;
12356;SDS011;6243;51.244;6.774;2023-05-14T02:35:05;12.57;;;11.30;;
12356;SDS011;6243;51.244;6.774;2023-05-14T02:37:32;11.00;;;9.90;;
12356;SDS011;6243;51.244;6.774;2023-05-14T02:39:57;12.13;;;10.77;;
12356;SDS011;6243;51.244;6.774;2023-05-14T02:42:23;11.87;;;10.67;;
12356;SDS011;6243;51.244;6.774;2023-05-14T02:44:48;12.70;;;11.50;;
12356;SDS011;6243;51.244;6.774;2023-05-14T02:47:15;12.17;;;11.00;;
12356;SDS011;6243;51.244;6.774;2023-05-14T02:49:40;12.90;;;11.60;;
12356;SDS011;6243;51.244;6.774;2023-05-14T02:52:06;13.63;;;12.10;;
12356;SDS011;6243;51.244;6.774;2023-05-14T02:54:31;12.43;;;11.00;;
12356;SDS011;6243;51.244;6.774;2023-05-14T02:56:57;11.00;;;9.90;;
12356;SDS011;6243;51.244;6.774;2023-05-14T02:59:23;11.83;;;10.63;;
12356;SDS011;6243;51.244;6.774;2023-05-14T03:01:48;11.27;;;10.27;;
12356;SDS011;6243;51.244;6.774;2023-05-14T03:04:15;11.40;;;10.30;;
12356;SDS011;6243;51.244;6.774;2023-05-14T03:06:41;10.67;;;9.67;;
12356;SDS011;6243;51.244;6.774;2023-05-14T03:09:06;10.40;;;9.47;;
12356;SDS011;6243;51.244;6.774;2023-05-14T03:11:32;14.00;;;10.83;;
12356;SDS011;6243;51.244;6.774;2023-05-14T03:13:57;12.83;;;11.07;;
12356;SDS011;6243;51.244;6.774;2023-05-14T03:16:23;13.00;;;11.60;;
12356;SDS011;6243;51.244;6.774;2023-05-14T03:18:48;14.13;;;11.17;;
12356;SDS011;6243;51.244;6.774;2023-05-14T03:21:15;10.93;;;9.93;;
12356;SDS011;6243;51.244;6.774;2023-05-14T03:23:41;10.70;;;9.70;;
12356;SDS011;6243;51.244;6.774;2023-05-14T03:26:06;12.50;;;11.30;;
12356;SDS011;6243;51.244;6.774;2023-05-14T03:28:32;12.33;;;11.13;;
12356;SDS011;6243;51.244;6.774;2023-05-14T03:30:57;12.13;;;10.47;;
12356;SDS011;6243;51.244;6.774;2023-05-14T03:33:23;11.43;;;10.33;;
12356;SDS011;6243;51.244;6.774;2023-05-14T03:35:48;12.70;;;11.13;;
12356;SDS011;6243;51.244;6.774;2023-05-14T03:38:15;12.60;;;10.77;;
12356;SDS011;6243;51.244;6.774;2023-05-14T03:40:41;12.00;;;10.83;;
12356;SDS011;6243;51.244;6.774;2023-05-14T03:43:06;12.57;;;10.47;;
12356;SDS011;6243;51.244;6.774;2023-05-14T03:45:32;11.57;;;10.47;;
12356;SDS011;6243;51.244;6.774;2023-05-14T03:47:57;11.33;;;10.07;;
12356;SDS011;6243;51.244;6.774;2023-05-14T03:50:23;11.67;;;10.07;;
12356;SDS011;6243;51.244;6.774;2023-05-14T03:52:48;12.90;;;11.43;;
12356;SDS011;6243;51.244;6.774;2023-05-14T03:55:15;13.70;;;11.47;;
12356;SDS011;6243;51.244;6.774;2023-05-14T03:57:41;12.20;;;10.97;;
12356;SDS011;6243;51.244;6.774;2023-05-14T04:00:07;11.07;;;9.97;;
12356;SDS011;6243;51.244;6.774;2023-05-14T04:02:33;11.40;;;10.23;;
12356;SDS011;6243;51.244;6.774;2023-05-14T04:04:58;12.23;;;11.13;;
12356;SDS011;6243;51.244;6.774;2023-05-14T04:07:24;12.83;;;11.53;;
12356;SDS011;6243;51.244;6.774;2023-05-14T04:09:49;11.97;;;10.73;;
12356;SDS011;6243;51.244;6.774;2023-05-14T04:12:16;11.97;;;10.87;;
12356;SDS011;6243;51.244;6.774;2023-05-14T04:14:42;11.47;;;10.30;;
12356;SDS011;6243;51.244;6.774;2023-05-14T04:17:07;11.67;;;10.57;;
12356;SDS011;6243;51.244;6.774;2023-05-14T04:19:33;12.77;;;11.53;;
12356;SDS011;6243;51.244;6.774;2023-05-14T04:21:58;12.63;;;11.53;;
12356;SDS011;6243;51.244;6.774;2023-05-14T04:24:24;13.67;;;11.97;;
12356;SDS011;6243;51.244;6.774;2023-05-14T04:26:49;12.57;;;11.37;;
12356;SDS011;6243;51.244;6.774;2023-05-14T04:29:16;11.27;;;10.13;;
12356;SDS011;6243;51.244;6.774;2023-05-14T04:31:42;12.50;;;10.47;;
12356;SDS011;6243;51.244;6.774;2023-05-14T04:34:08;13.13;;;11.83;;
12356;SDS011;6243;51.244;6.774;2023-05-14T04:36:33;13.37;;;12.00;;
12356;SDS011;6243;51.244;6.774;2023-05-14T04:38:59;12.87;;;11.60;;
12356;SDS011;6243;51.244;6.774;2023-05-14T04:41:24;12.37;;;11.17;;
12356;SDS011;6243;51.244;6.774;2023-05-14T04:43:50;14.67;;;12.10;;
12356;SDS011;6243;51.244;6.774;2023-05-14T04:46:20;12.50;;;11.23;;
12356;SDS011;6243;51.244;6.774;2023-05-14T04:48:46;12.90;;;11.63;;
12356;SDS011;6243;51.244;6.774;2023-05-14T04:51:12;12.73;;;11.53;;
12356;SDS011;6243;51.244;6.774;2023-05-14T04:53:37;12.87;;;11.70;;
12356;SDS011;6243;51.244;6.774;2023-05-14T04:56:03;12.07;;;10.97;;
12356;SDS011;6243;51.244;6.774;2023-05-14T04:58:28;11.80;;;10.57;;
12356;SDS011;6243;51.244;6.774;2023-05-14T05:00:54;12.87;;;11.67;;
12356;SDS011;6243;51.244;6.774;2023-05-14T05:03:20;12.70;;;11.50;;
12356;SDS011;6243;51.244;6.774;2023-05-14T05:05:46;12.90;;;11.60;;
12356;SDS011;6243;51.244;6.774;2023-05-14T05:08:12;13.40;;;12.10;;
12356;SDS011;6243;51.244;6.774;2023-05-14T05:10:37;13.67;;;12.27;;
12356;SDS011;6243;51.244;6.774;2023-05-14T05:13:03;15.27;;;13.70;;
12356;SDS011;6243;51.244;6.774;2023-05-14T05:15:28;15.00;;;13.50;;
12356;SDS011;6243;51.244;6.774;2023-05-14T05:17:54;13.77;;;12.47;;
12356;SDS011;6243;51.244;6.774;2023-05-14T05:20:21;15.43;;;13.93;;
12356;SDS011;6243;51.244;6.774;2023-05-14T05:22:46;15.13;;;13.60;;
12356;SDS011;6243;51.244;6.774;2023-05-14T05:25:12;14.60;;;13.13;;
12356;SDS011;6243;51.244;6.774;2023-05-14T05:27:37;14.47;;;13.17;;
12356;SDS011;6243;51.244;6.774;2023-05-14T05:30:03;15.50;;;14.00;;
12356;SDS011;6243;51.244;6.774;2023-05-14T05:32:29;15.53;;;14.03;;
12356;SDS011;6243;51.244;6.774;2023-05-14T05:34:55;16.93;;;14.90;;
12356;SDS011;6243;51.244;6.774;2023-05-14T05:37:22;15.87;;;14.23;;
12356;SDS011;6243;51.244;6.774;2023-05-14T05:39:48;15.23;;;13.73;;
12356;SDS011;6243;51.244;6.774;2023-05-14T05:42:13;15.90;;;14.10;;
12356;SDS011;6243;51.244;6.774;2023-05-14T05:44:39;15.53;;;14.10;;
12356;SDS011;6243;51.244;6.774;2023-05-14T05:47:04;15.10;;;13.80;;
12356;SDS011;6243;51.244;6.774;2023-05-14T05:49:30;15.83;;;14.13;;
12356;SDS011;6243;51.244;6.774;2023-05-14T05:51:55;15.67;;;14.07;;
12356;SDS011;6243;51.244;6.774;2023-05-14T05:54:23;15.90;;;14.50;;
12356;SDS011;6243;51.244;6.774;2023-05-14T05:56:48;15.67;;;14.27;;
12356;SDS011;6243;51.244;6.774;2023-05-14T05:59:14;15.40;;;13.90;;
12356;SDS011;6243;51.244;6.774;2023-05-14T06:01:39;15.63;;;14.23;;
12356;SDS011;6243;51.244;6.774;2023-05-14T06:04:05;16.13;;;14.60;;
12356;SDS011;6243;51.244;6.774;2023-05-14T06:06:30;15.27;;;13.87;;
12356;SDS011;6243;51.244;6.774;2023-05-14T06:08:56;16.13;;;14.67;;
12356;SDS011;6243;51.244;6.774;2023-05-14T06:11:22;15.20;;;13.80;;
12356;SDS011;6243;51.244;6.774;2023-05-14T06:13:48;15.77;;;14.17;;
12356;SDS011;6243;51.244;6.774;2023-05-14T06:16:14;16.00;;;14.50;;
12356;SDS011;6243;51.244;6.774;2023-05-14T06:18:39;16.87;;;15.17;;
12356;SDS011;6243;51.244;6.774;2023-05-14T06:21:05;15.43;;;14.00;;
12356;SDS011;6243;51.244;6.774;2023-05-14T06:23:30;15.07;;;13.67;;
12356;SDS011;6243;51.244;6.774;2023-05-14T06:25:56;17.27;;;15.37;;
12356;SDS011;6243;51.244;6.774;2023-05-14T06:28:23;16.17;;;14.57;;
12356;SDS011;6243;51.244;6.774;2023-05-14T06:30:48;15.40;;;14.10;;
12356;SDS011;6243;51.244;6.774;2023-05-14T06:33:14;14.83;;;13.33;;
12356;SDS011;6243;51.244;6.774;2023-05-14T06:35:39;15.43;;;13.93;;
12356;SDS011;6243;51.244;6.774;2023-05-14T06:38:05;15.87;;;14.33;;
12356;SDS011;6243;51.244;6.774;2023-05-14T06:40:30;15.80;;;14.43;;
12356;SDS011;6243;51.244;6.774;2023-05-14T06:42:56;15.27;;;13.50;;
12356;SDS011;6243;51.244;6.774;2023-05-14T06:45:23;14.63;;;13.23;;
12356;SDS011;6243;51.244;6.774;2023-05-14T06:47:48;15.20;;;13.80;;
12356;SDS011;6243;51.244;6.774;2023-05-14T06:50:14;18.50;;;13.57;;
12356;SDS011;6243;51.244;6.774;2023-05-14T06:52:39;14.70;;;13.40;;
12356;SDS011;6243;51.244;6.774;2023-05-14T06:55:05;15.23;;;13.63;;
12356;SDS011;6243;51.244;6.774;2023-05-14T06:57:31;14.27;;;13.07;;
12356;SDS011;6243;51.244;6.774;2023-05-14T06:59:57;14.63;;;13.23;;
12356;SDS011;6243;51.244;6.774;2023-05-14T07:02:23;15.27;;;13.03;;
12356;SDS011;6243;51.244;6.774;2023-05-14T07:04:49;14.37;;;12.97;;
12356;SDS011;6243;51.244;6.774;2023-05-14T07:07:14;15.23;;;13.67;;
12356;SDS011;6243;51.244;6.774;2023-05-14T07:09:40;14.87;;;13.47;;
12356;SDS011;6243;51.244;6.774;2023-05-14T07:12:06;13.07;;;11.77;;
12356;SDS011;6243;51.244;6.774;2023-05-14T07:14:32;14.53;;;13.17;;
12356;SDS011;6243;51.244;6.774;2023-05-14T07:16:58;13.63;;;12.43;;
12356;SDS011;6243;51.244;6.774;2023-05-14T07:19:25;14.47;;;13.17;;
12356;SDS011;6243;51.244;6.774;2023-05-14T07:21:51;15.57;;;13.90;;
12356;SDS011;6243;51.244;6.774;2023-05-14T07:24:16;15.47;;;13.97;;
12356;SDS011;6243;51.244;6.774;2023-05-14T07:26:42;14.30;;;13.00;;
12356;SDS011;6243;51.244;6.774;2023-05-14T07:29:08;14.60;;;13.30;;
12356;SDS011;6243;51.244;6.774;2023-05-14T07:31:33;13.57;;;12.37;;
12356;SDS011;6243;51.244;6.774;2023-05-14T07:33:58;13.13;;;11.93;;
12356;SDS011;6243;51.244;6.774;2023-05-14T07:36:25;13.43;;;12.27;;
12356;SDS011;6243;51.244;6.774;2023-05-14T07:38:51;13.67;;;12.37;;
12356;SDS011;6243;51.244;6.774;2023-05-14T07:41:17;14.70;;;13.30;;
12356;SDS011;6243;51.244;6.774;2023-05-14T07:43:42;13.07;;;11.87;;
12356;SDS011;6243;51.244;6.774;2023-05-14T07:46:08;14.10;;;12.80;;
12356;SDS011;6243;51.244;6.774;2023-05-14T07:48:33;15.30;;;13.73;;
12356;SDS011;6243;51.244;6.774;2023-05-14T07:50:59;14.57;;;13.17;;
12356;SDS011;6243;51.244;6.774;2023-05-14T07:53:25;14.53;;;13.23;;
12356;SDS011;6243;51.244;6.774;2023-05-14T07:55:51;14.37;;;12.87;;
12356;SDS011;6243;51.244;6.774;2023-05-14T07:58:16;14.00;;;12.67;;
12356;SDS011;6243;51.244;6.774;2023-05-14T08:00:42;14.73;;;13.23;;
12356;SDS011;6243;51.244;6.774;2023-05-14T08:03:08;13.10;;;11.83;;
12356;SDS011;6243;51.244;6.774;2023-05-14T08:05:33;13.17;;;11.87;;
12356;SDS011;6243;51.244;6.774;2023-05-14T08:07:59;13.37;;;12.00;;
12356;SDS011;6243;51.244;6.774;2023-05-14T08:10:26;12.53;;;11.43;;
12356;SDS011;6243;51.244;6.774;2023-05-14T08:12:51;13.60;;;12.20;;
12356;SDS011;6243;51.244;6.774;2023-05-14T08:15:17;14.37;;;13.07;;
12356;SDS011;6243;51.244;6.774;2023-05-14T08:17:43;15.10;;;13.03;;
12356;SDS011;6243;51.244;6.774;2023-05-14T08:20:08;14.50;;;13.13;;
12356;SDS011;6243;51.244;6.774;2023-05-14T08:22:34;11.43;;;10.43;;
12356;SDS011;6243;51.244;6.774;2023-05-14T08:25:00;11.97;;;10.80;;
12356;SDS011;6243;51.244;6.774;2023-05-14T08:27:27;12.97;;;11.73;;
12356;SDS011;6243;51.244;6.774;2023-05-14T08:29:52;12.67;;;11.47;;
12356;SDS011;6243;51.244;6.774;2023-05-14T08:32:18;12.93;;;11.63;;
12356;SDS011;6243;51.244;6.774;2023-05-14T08:34:43;12.27;;;11.07;;
12356;SDS011;6243;51.244;6.774;2023-05-14T08:37:09;13.57;;;12.30;;
12356;SDS011;6243;51.244;6.774;2023-05-14T08:39:34;14.47;;;13.07;;
12356;SDS011;6243;51.244;6.774;2023-05-14T08:42:00;13.67;;;12.50;;
12356;SDS011;6243;51.244;6.774;2023-05-14T08:44:31;13.33;;;12.13;;
12356;SDS011;6243;51.244;6.774;2023-05-14T08:47:01;11.87;;;10.67;;
12356;SDS011;6243;51.244;6.774;2023-05-14T08:49:28;11.50;;;10.40;;
12356;SDS011;6243;51.244;6.774;2023-05-14T08:52:01;12.83;;;11.60;;
12356;SDS011;6243;51.244;6.774;2023-05-14T08:54:28;10.30;;;9.40;;
12356;SDS011;6243;51.244;6.774;2023-05-14T08:56:54;12.60;;;11.13;;
12356;SDS011;6243;51.244;6.774;2023-05-14T08:59:19;10.43;;;9.53;;
12356;SDS011;6243;51.244;6.774;2023-05-14T09:01:46;10.97;;;9.97;;
12356;SDS011;6243;51.244;6.774;2023-05-14T09:04:15;11.20;;;10.30;;
12356;SDS011;6243;51.244;6.774;2023-05-14T09:06:44;12.53;;;11.33;;
12356;SDS011;6243;51.244;6.774;2023-05-14T09:09:13;10.23;;;9.33;;
12356;SDS011;6243;51.244;6.774;2023-05-14T09:11:41;10.83;;;9.93;;
12356;SDS011;6243;51.244;6.774;2023-05-14T09:14:09;10.97;;;9.87;;
12356;SDS011;6243;51.244;6.774;2023-05-14T09:16:35;10.37;;;9.23;;
12356;SDS011;6243;51.244;6.774;2023-05-14T09:19:02;10.33;;;9.43;;
12356;SDS011;6243;51.244;6.774;2023-05-14T09:21:28;10.10;;;9.13;;
12356;SDS011;6243;51.244;6.774;2023-05-14T09:23:54;8.33;;;7.50;;
12356;SDS011;6243;51.244;6.774;2023-05-14T09:26:22;9.20;;;8.30;;
12356;SDS011;6243;51.244;6.774;2023-05-14T09:28:48;8.43;;;7.73;;
12356;SDS011;6243;51.244;6.774;2023-05-14T09:31:13;8.13;;;7.43;;
12356;SDS011;6243;51.244;6.774;2023-05-14T09:33:39;7.17;;;6.57;;
12356;SDS011;6243;51.244;6.774;2023-05-14T09:36:06;8.27;;;7.37;;
12356;SDS011;6243;51.244;6.774;2023-05-14T09:38:32;7.03;;;6.33;;
12356;SDS011;6243;51.244;6.774;2023-05-14T09:40:58;6.30;;;5.70;;
12356;SDS011;6243;51.244;6.774;2023-05-14T09:43:24;7.70;;;7.03;;
12356;SDS011;6243;51.244;6.774;2023-05-14T09:45:49;5.63;;;5.13;;
12356;SDS011;6243;51.244;6.774;2023-05-14T09:48:15;6.77;;;6.10;;
12356;SDS011;6243;51.244;6.774;2023-05-14T09:50:41;7.10;;;6.40;;
12356;SDS011;6243;51.244;6.774;2023-05-14T09:53:08;7.60;;;6.90;;
12356;SDS011;6243;51.244;6.774;2023-05-14T09:55:34;6.73;;;5.67;;
12356;SDS011;6243;51.244;6.774;2023-05-14T09:58:00;7.03;;;5.57;;
12356;SDS011;6243;51.244;6.774;2023-05-14T10:00:26;6.73;;;6.13;;
12356;SDS011;6243;51.244;6.774;2023-05-14T10:02:53;7.30;;;5.13;;
12356;SDS011;6243;51.244;6.774;2023-05-14T10:05:20;4.63;;;4.33;;
12356;SDS011;6243;51.244;6.774;2023-05-14T10:07:48;5.80;;;5.30;;
12356;SDS011;6243;51.244;6.774;2023-05-14T10:10:18;6.13;;;5.47;;
12356;SDS011;6243;51.244;6.774;2023-05-14T10:12:45;5.70;;;4.63;;
12356;SDS011;6243;51.244;6.774;2023-05-14T10:15:18;5.23;;;4.73;;
12356;SDS011;6243;51.244;6.774;2023-05-14T10:17:47;5.17;;;4.70;;
12356;SDS011;6243;51.244;6.774;2023-05-14T10:20:16;4.63;;;4.23;;
12356;SDS011;6243;51.244;6.774;2023-05-14T10:22:42;4.77;;;4.30;;
12356;SDS011;6243;51.244;6.774;2023-05-14T10:25:08;4.53;;;3.80;;
12356;SDS011;6243;51.244;6.774;2023-05-14T10:27:36;4.03;;;3.63;;
12356;SDS011;6243;51.244;6.774;2023-05-14T10:30:04;6.47;;;4.30;;
12356;SDS011;6243;51.244;6.774;2023-05-14T10:32:34;4.47;;;3.70;;
12356;SDS011;6243;51.244;6.774;2023-05-14T10:35:00;4.83;;;4.43;;
12356;SDS011;6243;51.244;6.774;2023-05-14T10:37:25;4.67;;;4.27;;
12356;SDS011;6243;51.244;6.774;2023-05-14T10:39:52;5.10;;;4.63;;
12356;SDS011;6243;51.244;6.774;2023-05-14T10:42:22;6.53;;;4.83;;
12356;SDS011;6243;51.244;6.774;2023-05-14T10:44:52;8.17;;;4.80;;
12356;SDS011;6243;51.244;6.774;2023-05-14T10:47:18;5.13;;;4.60;;
12356;SDS011;6243;51.244;6.774;2023-05-14T10:49:45;5.60;;;5.00;;
12356;SDS011;6243;51.244;6.774;2023-05-14T10:52:11;5.67;;;4.60;;
12356;SDS011;6243;51.244;6.774;2023-05-14T10:54:36;4.33;;;3.93;;
12356;SDS011;6243;51.244;6.774;2023-05-14T10:57:02;6.93;;;5.63;;
12356;SDS011;6243;51.244;6.774;2023-05-14T10:59:28;9.60;;;5.40;;
12356;SDS011;6243;51.244;6.774;2023-05-14T11:01:56;7.07;;;5.40;;
12356;SDS011;6243;51.244;6.774;2023-05-14T11:04:22;5.80;;;5.20;;
12356;SDS011;6243;51.244;6.774;2023-05-14T11:06:48;7.10;;;5.70;;
12356;SDS011;6243;51.244;6.774;2023-05-14T11:09:16;7.47;;;5.47;;
12356;SDS011;6243;51.244;6.774;2023-05-14T11:11:41;6.60;;;5.10;;
12356;SDS011;6243;51.244;6.774;2023-05-14T11:14:08;5.17;;;4.67;;
12356;SDS011;6243;51.244;6.774;2023-05-14T11:16:33;7.03;;;4.80;;
12356;SDS011;6243;51.244;6.774;2023-05-14T11:19:01;5.50;;;4.20;;
12356;SDS011;6243;51.244;6.774;2023-05-14T11:21:28;5.50;;;4.90;;
12356;SDS011;6243;51.244;6.774;2023-05-14T11:23:53;5.83;;;5.10;;
12356;SDS011;6243;51.244;6.774;2023-05-14T11:26:19;5.30;;;3.87;;
12356;SDS011;6243;51.244;6.774;2023-05-14T11:28:45;5.13;;;4.67;;
12356;SDS011;6243;51.244;6.774;2023-05-14T11:31:11;6.27;;;3.90;;
12356;SDS011;6243;51.244;6.774;2023-05-14T11:33:36;4.27;;;3.53;;
12356;SDS011;6243;51.244;6.774;2023-05-14T11:36:04;3.87;;;3.47;;
12356;SDS011;6243;51.244;6.774;2023-05-14T11:38:30;4.07;;;3.60;;
12356;SDS011;6243;51.244;6.774;2023-05-14T11:40:56;4.33;;;3.40;;
12356;SDS011;6243;51.244;6.774;2023-05-14T11:43:23;6.50;;;3.60;;
12356;SDS011;6243;51.244;6.774;2023-05-14T11:45:49;4.03;;;3.20;;
12356;SDS011;6243;51.244;6.774;2023-05-14T11:48:15;3.00;;;2.80;;
12356;SDS011;6243;51.244;6.774;2023-05-14T11:50:43;4.80;;;3.20;;
12356;SDS011;6243;51.244;6.774;2023-05-14T11:53:14;3.03;;;2.83;;
12356;SDS011;6243;51.244;6.774;2023-05-14T11:55:40;2.77;;;2.57;;
12356;SDS011;6243;51.244;6.774;2023-05-14T11:58:06;4.47;;;2.97;;
12356;SDS011;6243;51.244;6.774;2023-05-14T12:00:31;2.67;;;2.47;;
12356;SDS011;6243;51.244;6.774;2023-05-14T12:02:57;3.37;;;3.07;;
12356;SDS011;6243;51.244;6.774;2023-05-14T12:05:23;3.17;;;2.67;;
12356;SDS011;6243;51.244;6.774;2023-05-14T12:07:49;3.20;;;2.90;;
12356;SDS011;6243;51.244;6.774;2023-05-14T12:10:16;3.87;;;3.47;;
12356;SDS011;6243;51.244;6.774;2023-05-14T12:12:43;5.23;;;3.83;;
12356;SDS011;6243;51.244;6.774;2023-05-14T12:15:10;4.37;;;3.47;;
12356;SDS011;6243;51.244;6.774;2023-05-14T12:17:36;3.93;;;3.30;;
12356;SDS011;6243;51.244;6.774;2023-05-14T12:20:02;3.07;;;2.70;;
12356;SDS011;6243;51.244;6.774;2023-05-14T12:22:28;2.87;;;2.67;;
12356;SDS011;6243;51.244;6.774;2023-05-14T12:24:54;2.93;;;2.70;;
12356;SDS011;6243;51.244;6.774;2023-05-14T12:27:22;3.17;;;2.80;;
12356;SDS011;6243;51.244;6.774;2023-05-14T12:29:49;2.77;;;2.57;;
12356;SDS011;6243;51.244;6.774;2023-05-14T12:32:22;2.73;;;2.33;;
12356;SDS011;6243;51.244;6.774;2023-05-14T12:34:49;3.97;;;2.70;;
12356;SDS011;6243;51.244;6.774;2023-05-14T12:37:15;3.00;;;2.80;;
12356;SDS011;6243;51.244;6.774;2023-05-14T12:39:40;2.83;;;2.50;;
12356;SDS011;6243;51.244;6.774;2023-05-14T12:42:06;3.00;;;2.73;;
12356;SDS011;6243;51.244;6.774;2023-05-14T12:44:33;3.60;;;2.60;;
12356;SDS011;6243;51.244;6.774;2023-05-14T12:46:58;4.50;;;3.00;;
12356;SDS011;6243;51.244;6.774;2023-05-14T12:49:24;3.20;;;2.40;;
12356;SDS011;6243;51.244;6.774;2023-05-14T12:51:49;3.03;;;2.30;;
12356;SDS011;6243;51.244;6.774;2023-05-14T12:54:15;3.20;;;2.60;;
12356;SDS011;6243;51.244;6.774;2023-05-14T12:56:40;5.90;;;2.63;;
12356;SDS011;6243;51.244;6.774;2023-05-14T12:59:06;3.20;;;2.70;;
12356;SDS011;6243;51.244;6.774;2023-05-14T13:01:33;4.77;;;2.60;;
12356;SDS011;6243;51.244;6.774;2023-05-14T13:03:58;2.93;;;2.73;;
12356;SDS011;6243;51.244;6.774;2023-05-14T13:06:24;4.73;;;2.80;;
12356;SDS011;6243;51.244;6.774;2023-05-14T13:08:49;4.53;;;3.03;;
12356;SDS011;6243;51.244;6.774;2023-05-14T13:11:15;3.30;;;3.00;;
12356;SDS011;6243;51.244;6.774;2023-05-14T13:13:40;3.00;;;2.70;;
12356;SDS011;6243;51.244;6.774;2023-05-14T13:16:06;4.23;;;2.83;;
12356;SDS011;6243;51.244;6.774;2023-05-14T13:18:33;2.80;;;2.60;;
12356;SDS011;6243;51.244;6.774;2023-05-14T13:20:58;3.67;;;2.80;;
12356;SDS011;6243;51.244;6.774;2023-05-14T13:23:24;3.37;;;3.07;;
12356;SDS011;6243;51.244;6.774;2023-05-14T13:25:49;3.83;;;2.73;;
12356;SDS011;6243;51.244;6.774;2023-05-14T13:28:15;3.33;;;2.73;;
12356;SDS011;6243;51.244;6.774;2023-05-14T13:30:40;3.40;;;3.10;;
12356;SDS011;6243;51.244;6.774;2023-05-14T13:33:06;4.07;;;3.40;;
12356;SDS011;6243;51.244;6.774;2023-05-14T13:35:33;5.70;;;3.50;;
12356;SDS011;6243;51.244;6.774;2023-05-14T13:37:58;3.93;;;3.30;;
12356;SDS011;6243;51.244;6.774;2023-05-14T13:40:24;3.40;;;3.10;;
12356;SDS011;6243;51.244;6.774;2023-05-14T13:42:49;4.37;;;3.03;;
12356;SDS011;6243;51.244;6.774;2023-05-14T13:45:15;5.47;;;2.97;;
12356;SDS011;6243;51.244;6.774;2023-05-14T13:47:41;3.33;;;2.97;;
12356;SDS011;6243;51.244;6.774;2023-05-14T13:50:06;3.20;;;3.00;;
12356;SDS011;6243;51.244;6.774;2023-05-14T13:52:34;5.63;;;3.30;;
12356;SDS011;6243;51.244;6.774;2023-05-14T13:54:59;3.70;;;3.40;;
12356;SDS011;6243;51.244;6.774;2023-05-14T13:57:25;4.10;;;3.27;;
12356;SDS011;6243;51.244;6.774;2023-05-14T13:59:50;4.03;;;2.67;;
12356;SDS011;6243;51.244;6.774;2023-05-14T14:02:16;3.70;;;2.87;;
12356;SDS011;6243;51.244;6.774;2023-05-14T14:04:41;3.23;;;2.70;;
12356;SDS011;6243;51.244;6.774;2023-05-14T14:07:07;2.90;;;2.60;;
12356;SDS011;6243;51.244;6.774;2023-05-14T14:09:34;2.67;;;2.43;;
12356;SDS011;6243;51.244;6.774;2023-05-14T14:11:59;3.00;;;2.80;;
12356;SDS011;6243;51.244;6.774;2023-05-14T14:14:25;3.37;;;2.60;;
12356;SDS011;6243;51.244;6.774;2023-05-14T14:16:51;2.80;;;2.60;;
12356;SDS011;6243;51.244;6.774;2023-05-14T14:19:16;2.90;;;2.70;;
12356;SDS011;6243;51.244;6.774;2023-05-14T14:21:42;3.77;;;2.70;;
12356;SDS011;6243;51.244;6.774;2023-05-14T14:24:07;3.47;;;2.70;;
12356;SDS011;6243;51.244;6.774;2023-05-14T14:26:34;3.27;;;2.80;;
12356;SDS011;6243;51.244;6.774;2023-05-14T14:29:00;4.07;;;3.00;;
12356;SDS011;6243;51.244;6.774;2023-05-14T14:31:25;5.73;;;3.50;;
12356;SDS011;6243;51.244;6.774;2023-05-14T14:33:51;3.83;;;3.40;;
12356;SDS011;6243;51.244;6.774;2023-05-14T14:36:16;4.10;;;3.73;;
12356;SDS011;6243;51.244;6.774;2023-05-14T14:38:42;4.57;;;3.40;;